CZ-0083 weather

Škudly
Central Bohemian Region, Czechia

Public forecast

Using degrees Celsius for public forecast. Weather courtesy of forecast.io.

METAR (pilot weather report)

Closest report is Čáslav Air Base, 7.3 nm (13.5 km) SW. Retrieved 2019/05/21 04:00 UTC (15 minutes ago):

LKCV 210400Z 10004KT CAVOK 11/10 Q1003 NOSIG RMK BLU BLU

TAF (pilot weather forecast)

Closest forecast is Čáslav Air Base, 7.3 nm (13.5 km) SW. Retrieved 2019/05/21 00:06 UTC (4 hours ago):

TAF LKCV 202300Z 2100/2200 16005KT CAVOK PROB30 TEMPO 2101/2106 5000 BR BKN020 BECMG 2107/2109 9999 BKN030 TEMPO 2111/2118 7000 SHRA SCT020TCU BKN030 BECMG 2118/2120 28008KT